createdAt,value
2017-04-25T00:06:16.942Z,0
2017-04-25T00:16:28.044Z,0
2017-04-25T00:26:39.238Z,0
2017-04-25T00:36:50.419Z,0
2017-04-25T00:47:01.597Z,0
2017-04-25T00:57:12.831Z,0
2017-04-25T01:07:24.060Z,0
2017-04-25T01:17:35.366Z,0
2017-04-25T01:27:46.739Z,0
2017-04-25T01:37:58.127Z,0
2017-04-25T01:48:09.492Z,0
2017-04-25T01:58:20.854Z,0
2017-04-25T02:08:32.175Z,0
2017-04-25T02:18:43.489Z,0
2017-04-25T02:28:54.828Z,0
2017-04-25T02:39:06.167Z,0
2017-04-25T02:49:17.485Z,0
2017-04-25T02:59:28.805Z,0
2017-04-25T03:09:40.061Z,0
2017-04-25T03:19:51.306Z,0
2017-04-25T03:30:02.546Z,0
2017-04-25T03:40:13.837Z,4
2017-04-25T03:50:25.172Z,8
2017-04-25T04:00:36.488Z,32
2017-04-25T04:10:47.747Z,120
2017-04-25T04:20:59.010Z,308
2017-04-25T04:31:10.242Z,728
2017-04-25T04:41:21.430Z,972
2017-04-25T04:51:32.687Z,1488
2017-04-25T05:01:43.869Z,2672
2017-04-25T05:11:54.999Z,3968
2017-04-25T05:22:06.102Z,4976
2017-04-25T05:32:17.187Z,4656
2017-04-25T05:42:28.185Z,7600
2017-04-25T05:52:39.025Z,14056
2017-04-25T06:02:49.574Z,15080
2017-04-25T06:13:00.049Z,16156
2017-04-25T06:23:10.588Z,14208
2017-04-25T06:33:21.151Z,14252
2017-04-25T06:43:31.757Z,28704
2017-04-25T06:53:42.243Z,39488
2017-04-25T07:03:52.502Z,51520
2017-04-25T07:14:02.555Z,20736
2017-04-25T07:24:12.721Z,21792
2017-04-25T07:34:22.767Z,21344
2017-04-25T07:44:32.876Z,71392
2017-04-25T07:54:42.881Z,77280
2017-04-25T08:04:52.598Z,90304
2017-04-25T08:15:02.184Z,22624
2017-04-25T08:25:11.947Z,23840
2017-04-25T08:35:21.919Z,115648
2017-04-25T08:45:31.989Z,36768
2017-04-25T08:55:41.811Z,104672
2017-04-25T09:05:51.544Z,28160
2017-04-25T09:16:01.334Z,66880
2017-04-25T09:26:10.962Z,85472
2017-04-25T09:36:20.399Z,52832
2017-04-25T09:46:29.943Z,133568
2017-04-25T09:56:39.369Z,139008
2017-04-25T10:06:48.766Z,20704
2017-04-25T10:16:58.341Z,30592
2017-04-25T10:27:08.124Z,15136
2017-04-25T10:37:18.124Z,42016
2017-04-25T10:47:28.000Z,147904
2017-04-25T10:57:37.747Z,135392
2017-04-25T11:07:47.293Z,38208
2017-04-25T11:17:56.821Z,3916
2017-04-25T11:28:07.146Z,4756
2017-04-25T11:38:17.934Z,40352
2017-04-25T11:48:28.491Z,127584
2017-04-25T11:58:38.455Z,123488
2017-04-25T12:08:47.987Z,40672
2017-04-25T12:18:57.431Z,129376
2017-04-25T12:29:06.778Z,132416
2017-04-25T12:39:16.032Z,78368
2017-04-25T12:49:25.261Z,115712
2017-04-25T12:59:34.518Z,121696
2017-04-25T13:09:43.572Z,68864
2017-04-25T13:19:52.856Z,19904
2017-04-25T13:30:02.718Z,49056
2017-04-25T13:40:12.612Z,110848
2017-04-25T13:50:22.212Z,18048
2017-04-25T14:00:31.999Z,26912
2017-04-25T14:10:41.601Z,96800
2017-04-25T14:20:51.207Z,39808
2017-04-25T14:31:00.723Z,94208
2017-04-25T14:41:10.083Z,97216
2017-04-25T14:51:19.417Z,15936
2017-04-25T15:01:28.766Z,88192
2017-04-25T15:11:38.078Z,81376
2017-04-25T15:21:47.365Z,69536
2017-04-25T15:31:56.419Z,61952
2017-04-25T15:42:05.814Z,9860
2017-04-25T15:52:15.614Z,41152
2017-04-25T16:02:25.082Z,42688
2017-04-25T16:12:34.410Z,43552
2017-04-25T16:22:43.823Z,12432
2017-04-25T16:32:53.261Z,8500
2017-04-25T16:43:03.089Z,8900
2017-04-25T16:53:13.181Z,7636
2017-04-25T17:03:23.385Z,12568
2017-04-25T17:13:33.341Z,12352
2017-04-25T17:23:43.304Z,7356
2017-04-25T17:33:53.366Z,6652
2017-04-25T17:44:03.535Z,5808
2017-04-25T17:54:13.758Z,4668
2017-04-25T18:04:24.066Z,3780
2017-04-25T18:14:34.503Z,2692
2017-04-25T18:24:45.069Z,1852
2017-04-25T18:34:55.798Z,948
2017-04-25T18:45:06.665Z,392
2017-04-25T18:55:17.718Z,116
2017-04-25T19:05:28.894Z,28
2017-04-25T19:15:40.131Z,8
2017-04-25T19:25:51.479Z,0
2017-04-25T19:36:02.838Z,0
2017-04-25T19:46:14.175Z,0
2017-04-25T19:56:25.611Z,0
2017-04-25T20:06:37.201Z,0
2017-04-25T20:16:48.535Z,0
2017-04-25T20:26:59.996Z,0
2017-04-25T20:37:11.462Z,0
2017-04-25T20:47:22.960Z,0
2017-04-25T20:57:34.462Z,0
2017-04-25T21:07:46.002Z,0
2017-04-25T21:17:57.518Z,0
2017-04-25T21:28:08.998Z,0
2017-04-25T21:38:20.562Z,0
2017-04-25T21:48:32.158Z,0
2017-04-25T21:58:43.786Z,0
2017-04-25T22:08:55.393Z,0
2017-04-25T22:19:07.024Z,0
2017-04-25T22:29:18.680Z,0
2017-04-25T22:39:30.386Z,0
2017-04-25T22:49:42.119Z,0
2017-04-25T22:59:53.816Z,0
2017-04-25T23:10:05.536Z,0
2017-04-25T23:20:17.260Z,0
2017-04-25T23:30:29.027Z,0
2017-04-25T23:40:40.813Z,0
2017-04-25T23:50:52.641Z,0
